METAR Data
IDs: Format: Raw Decoded Include TAF

Data at: 0135 UTC 29 Nov 2020

METAR for:KDEH (Decorah Muni, IA, US)
Text:KDEH 290115Z AUTO 22005KT 10SM CLR 07/03 A2992 RMK AO2
Temperature: 7.0°C ( 45°F)
Dewpoint: 3.0°C ( 37°F) [RH = 76%]
Pressure (altimeter):29.92 inches Hg (1013.3 mb)
Winds:from the SW (220 degrees) at 6 MPH (5 knots; 2.6 m/s)
Visibility:10 or more sm (16+ km)
Ceiling:at least 12,000 feet AGL
Clouds:sky clear below 12,000 feet AGL
QC Flag:automated observation with no human augmentation